createdAt,value
2022-11-15T00:02:34.192Z,99479.42
2022-11-15T00:07:55.245Z,99474.73
2022-11-15T00:13:06.412Z,99476.98
2022-11-15T00:18:16.966Z,99474.71
2022-11-15T00:23:24.630Z,99466.51
2022-11-15T00:28:32.544Z,99463.67
2022-11-15T00:33:39.739Z,99455.91
2022-11-15T00:38:45.348Z,99449.84
2022-11-15T00:43:52.415Z,99443.20
2022-11-15T00:48:59.721Z,99437.02
2022-11-15T00:54:07.238Z,99429.23
2022-11-15T00:59:14.634Z,99431.26
2022-11-15T01:04:21.948Z,99432.53
2022-11-15T01:09:29.245Z,99429.56
2022-11-15T01:14:36.176Z,99429.65
2022-11-15T01:19:43.369Z,99425.75
2022-11-15T01:24:48.924Z,99421.74
2022-11-15T01:29:55.899Z,99421.10
2022-11-15T01:35:01.510Z,99416.38
2022-11-15T01:40:10.334Z,99418.24
2022-11-15T01:45:19.067Z,99414.60
2022-11-15T01:50:29.995Z,99421.00
2022-11-15T01:55:37.305Z,99414.08
2022-11-15T02:00:44.681Z,99403.70
2022-11-15T02:05:52.595Z,99393.15
2022-11-15T02:10:59.613Z,99394.59
2022-11-15T02:16:15.812Z,99390.89
2022-11-15T02:21:30.612Z,99390.27
2022-11-15T02:27:02.987Z,99383.85
2022-11-15T02:32:17.243Z,99379.03
2022-11-15T02:37:33.320Z,99375.73
2022-11-15T02:43:08.274Z,99371.09
2022-11-15T02:48:17.021Z,99365.05
2022-11-15T02:53:27.876Z,99364.31
2022-11-15T02:58:50.874Z,99366.95
2022-11-15T03:04:09.244Z,99354.72
2022-11-15T03:09:26.566Z,99352.40
2022-11-15T03:14:37.886Z,99343.85
2022-11-15T03:19:49.367Z,99342.71
2022-11-15T03:25:00.058Z,99343.84
2022-11-15T03:30:10.531Z,99337.54
2022-11-15T03:35:21.114Z,99334.77
2022-11-15T03:40:36.924Z,99326.43
2022-11-15T03:45:49.002Z,99321.86
2022-11-15T03:50:57.400Z,99314.46
2022-11-15T03:56:04.472Z,99310.79
2022-11-15T04:01:11.545Z,99305.30
2022-11-15T04:06:17.122Z,99295.29
2022-11-15T04:11:24.097Z,99289.06
2022-11-15T04:16:31.157Z,99279.33
2022-11-15T04:21:54.118Z,99274.97
2022-11-15T04:27:01.528Z,99263.70
2022-11-15T04:32:09.650Z,99252.88
2022-11-15T04:37:17.280Z,99249.92
2022-11-15T04:42:24.269Z,99245.64
2022-11-15T04:47:31.790Z,99241.02
2022-11-15T04:52:38.861Z,99237.16
2022-11-15T04:57:45.996Z,99237.83
2022-11-15T05:03:10.601Z,99235.90
2022-11-15T05:08:17.497Z,99227.85
2022-11-15T05:13:24.607Z,99221.34
2022-11-15T05:18:30.065Z,99213.83
2022-11-15T05:23:37.360Z,99216.30
2022-11-15T05:28:44.667Z,99215.48
2022-11-15T05:33:53.443Z,99204.57
2022-11-15T05:39:00.851Z,99201.31
2022-11-15T05:44:11.611Z,99198.41
2022-11-15T05:49:22.334Z,99203.02
2022-11-15T05:54:29.889Z,99208.59
2022-11-15T05:59:38.244Z,99209.92
2022-11-15T06:04:45.110Z,99205.83
2022-11-15T06:09:52.142Z,99201.65
2022-11-15T06:14:59.181Z,99192.82
2022-11-15T06:20:07.272Z,99188.59
2022-11-15T06:25:14.170Z,99189.28
2022-11-15T06:30:21.469Z,99190.02
2022-11-15T06:35:28.677Z,99188.95
2022-11-15T06:40:34.872Z,99192.20
2022-11-15T06:45:41.953Z,99190.00
2022-11-15T06:50:54.696Z,99193.73
2022-11-15T06:56:04.149Z,99192.65
2022-11-15T07:01:13.468Z,99191.34
2022-11-15T07:06:20.596Z,99190.09
2022-11-15T07:11:27.498Z,99190.75
2022-11-15T07:16:34.811Z,99195.70
2022-11-15T07:21:42.011Z,99198.02
2022-11-15T07:26:47.488Z,99193.86
2022-11-15T07:31:54.792Z,99184.48
2022-11-15T07:37:00.259Z,99175.14
2022-11-15T07:42:25.811Z,99174.59
2022-11-15T07:47:33.628Z,99172.41
2022-11-15T07:52:41.671Z,99174.27
2022-11-15T07:57:48.729Z,99169.02
2022-11-15T08:03:03.232Z,99162.81
2022-11-15T08:08:11.523Z,99159.74
2022-11-15T08:13:21.487Z,99156.87
2022-11-15T08:18:28.597Z,99150.70
2022-11-15T08:23:35.877Z,99149.70
2022-11-15T08:28:43.206Z,99150.36
2022-11-15T08:33:48.675Z,99146.55
2022-11-15T08:38:56.391Z,99138.00
2022-11-15T08:44:03.806Z,99131.50
2022-11-15T08:49:11.652Z,99133.48
2022-11-15T08:54:18.624Z,99138.46
2022-11-15T08:59:24.710Z,99136.92
2022-11-15T09:04:32.226Z,99133.20
2022-11-15T09:09:39.719Z,99129.64
2022-11-15T09:14:46.649Z,99127.60
2022-11-15T09:19:53.572Z,99121.72
2022-11-15T09:25:00.595Z,99114.30
2022-11-15T09:30:07.287Z,99114.21
2022-11-15T09:35:15.462Z,99113.56
2022-11-15T09:40:24.425Z,99108.77
2022-11-15T09:45:37.359Z,99102.59
2022-11-15T09:50:51.908Z,99108.50
2022-11-15T09:56:03.195Z,99104.89
2022-11-15T10:01:17.138Z,99098.59
2022-11-15T10:06:27.703Z,99082.92
2022-11-15T10:11:39.165Z,99072.35
2022-11-15T10:17:12.032Z,99066.73
2022-11-15T10:22:30.626Z,99056.61
2022-11-15T10:27:37.813Z,99049.26
2022-11-15T10:32:47.250Z,99042.02
2022-11-15T10:37:54.200Z,99031.40
2022-11-15T10:43:16.147Z,99023.34
2022-11-15T10:48:28.085Z,99014.33
2022-11-15T10:53:44.211Z,99010.34
2022-11-15T10:58:57.944Z,99002.88
2022-11-15T11:04:07.594Z,98991.58
2022-11-15T11:09:30.253Z,98984.29
2022-11-15T11:14:39.547Z,98976.63
2022-11-15T11:25:30.719Z,98972.30
2022-11-15T11:30:50.397Z,98960.89
2022-11-15T11:36:08.398Z,98955.46
2022-11-15T11:41:22.590Z,98951.48
2022-11-15T11:46:50.774Z,98944.45
2022-11-15T11:52:04.690Z,98940.27
2022-11-15T11:57:19.756Z,98930.98
2022-11-15T12:02:33.956Z,98919.77
2022-11-15T12:07:43.130Z,98921.14
2022-11-15T12:12:56.618Z,98903.34
2022-11-15T12:18:04.570Z,98900.05
2022-11-15T12:23:17.839Z,98901.34
2022-11-15T12:28:38.076Z,98901.90
2022-11-15T12:33:48.475Z,98903.02
2022-11-15T12:39:00.251Z,98894.50
2022-11-15T12:44:13.269Z,98885.55
2022-11-15T12:49:47.537Z,98884.64
2022-11-15T12:54:58.086Z,98876.72
2022-11-15T13:00:28.559Z,98870.63
2022-11-15T13:06:13.330Z,98863.67
2022-11-15T13:11:50.468Z,98864.02
2022-11-15T13:17:02.059Z,98855.96
2022-11-15T13:22:31.097Z,98852.80
2022-11-15T13:27:38.459Z,98846.14
2022-11-15T13:32:45.786Z,98848.31
2022-11-15T13:37:54.662Z,98842.11
2022-11-15T13:43:02.118Z,98833.42
2022-11-15T13:48:12.227Z,98828.27
2022-11-15T13:53:19.696Z,98822.52
2022-11-15T13:58:26.991Z,98811.55
2022-11-15T14:03:36.356Z,98803.67
2022-11-15T14:08:45.158Z,98807.53
2022-11-15T14:14:14.332Z,98807.48
2022-11-15T14:19:42.287Z,98808.89
2022-11-15T14:25:06.867Z,98803.32
2022-11-15T14:30:19.063Z,98795.90
2022-11-15T14:35:27.244Z,98789.98
2022-11-15T14:40:34.514Z,98780.58
2022-11-15T14:45:42.621Z,98779.71
2022-11-15T14:50:50.384Z,98775.98
2022-11-15T14:55:57.448Z,98767.74
2022-11-15T15:01:04.349Z,98772.00
2022-11-15T15:06:17.879Z,98761.64
2022-11-15T15:11:28.388Z,98757.81
2022-11-15T15:16:35.788Z,98757.77
2022-11-15T15:21:43.502Z,98750.08
2022-11-15T15:26:51.078Z,98741.60
2022-11-15T15:31:58.501Z,98739.85
2022-11-15T15:37:23.856Z,98740.90
2022-11-15T15:42:31.030Z,98742.54
2022-11-15T15:47:36.495Z,98737.27
2022-11-15T15:52:43.790Z,98736.84
2022-11-15T15:57:51.668Z,98737.89
2022-11-15T16:02:59.671Z,98733.73
2022-11-15T16:08:07.542Z,98727.30
2022-11-15T16:13:14.870Z,98726.20
2022-11-15T16:18:22.462Z,98726.02
2022-11-15T16:23:29.752Z,98726.89
2022-11-15T16:28:37.863Z,98722.14
2022-11-15T16:33:46.298Z,98723.21
2022-11-15T16:38:54.545Z,98718.80
2022-11-15T16:44:02.160Z,98715.94
2022-11-15T16:49:14.932Z,98711.98
2022-11-15T16:54:22.062Z,98709.77
2022-11-15T16:59:33.189Z,98706.14
2022-11-15T17:04:43.422Z,98702.58
2022-11-15T17:09:50.960Z,98695.89
2022-11-15T17:14:58.254Z,98694.63
2022-11-15T17:20:10.351Z,98687.06
2022-11-15T17:25:18.196Z,98688.95
2022-11-15T17:30:25.613Z,98683.14
2022-11-15T17:35:33.364Z,98672.66
2022-11-15T17:40:40.914Z,98674.39
2022-11-15T17:45:48.324Z,98669.15
2022-11-15T17:51:03.017Z,98664.50
2022-11-15T17:56:12.554Z,98663.85
2022-11-15T18:01:22.722Z,98656.05
2022-11-15T18:06:32.276Z,98654.29
2022-11-15T18:11:41.481Z,98641.80
2022-11-15T18:16:49.214Z,98636.55
2022-11-15T18:22:01.137Z,98631.29
2022-11-15T18:27:12.846Z,98627.05
2022-11-15T18:32:20.252Z,98623.33
2022-11-15T18:37:27.951Z,98619.34
2022-11-15T18:42:35.557Z,98618.26
2022-11-15T18:47:43.101Z,98615.10
2022-11-15T18:52:48.851Z,98609.43
2022-11-15T18:57:56.132Z,98613.37
2022-11-15T19:03:03.940Z,98604.77
2022-11-15T19:08:12.022Z,98605.92
2022-11-15T19:13:20.108Z,98603.63
2022-11-15T19:18:27.701Z,98596.50
2022-11-15T19:23:38.972Z,98591.40
2022-11-15T19:28:46.676Z,98586.96
2022-11-15T19:33:55.156Z,98590.91
2022-11-15T19:39:08.735Z,98587.43
2022-11-15T19:44:16.560Z,98581.02
2022-11-15T19:49:24.081Z,98578.85
2022-11-15T19:54:31.270Z,98575.61
2022-11-15T19:59:36.769Z,98571.78
2022-11-15T20:04:43.878Z,98567.52
2022-11-15T20:09:51.159Z,98565.47
2022-11-15T20:14:58.783Z,98551.11
2022-11-15T20:20:07.224Z,98547.65
2022-11-15T20:25:16.365Z,98546.66
2022-11-15T20:30:23.667Z,98546.98
2022-11-15T20:35:31.998Z,98547.70
2022-11-15T20:40:39.902Z,98546.41
2022-11-15T20:45:48.847Z,98541.41
2022-11-15T20:51:07.489Z,98539.23
2022-11-15T20:56:18.183Z,98531.73
2022-11-15T21:01:26.550Z,98521.70
2022-11-15T21:06:34.088Z,98518.11
2022-11-15T21:12:00.113Z,98512.06
2022-11-15T21:17:07.368Z,98511.29
2022-11-15T21:22:16.633Z,98510.99
2022-11-15T21:27:23.849Z,98504.67
2022-11-15T21:32:31.313Z,98497.75
2022-11-15T21:37:39.210Z,98491.11
2022-11-15T21:42:46.745Z,98485.73
2022-11-15T21:47:54.571Z,98486.62
2022-11-15T21:53:01.918Z,98479.27
2022-11-15T21:58:09.435Z,98473.41
2022-11-15T22:03:16.687Z,98463.98
2022-11-15T22:08:22.160Z,98456.44
2022-11-15T22:13:29.571Z,98447.88
2022-11-15T22:18:36.947Z,98449.09
2022-11-15T22:23:46.308Z,98442.27
2022-11-15T22:28:53.850Z,98436.30
2022-11-15T22:34:00.918Z,98433.27
2022-11-15T22:39:08.231Z,98431.97
2022-11-15T22:44:15.460Z,98434.26
2022-11-15T22:49:22.651Z,98433.66
2022-11-15T23:00:12.182Z,98424.60
2022-11-15T23:05:19.525Z,98418.35
2022-11-15T23:10:44.840Z,98417.45
2022-11-15T23:16:11.802Z,98410.13
2022-11-15T23:21:42.974Z,98397.73
2022-11-15T23:26:52.126Z,98387.65
2022-11-15T23:32:17.855Z,98381.63
2022-11-15T23:37:25.163Z,98370.15
2022-11-15T23:42:32.392Z,98362.33
2022-11-15T23:47:39.455Z,98358.55
2022-11-15T23:52:45.443Z,98348.59
2022-11-15T23:57:52.738Z,98339.49
